KESF/ESF METAR and TAF weather

Enter ICAO airport designator
Station Type Date Time Source
KESF METAR 2019/12/09 05:53 UTC NOAA

KESF 090553Z AUTO 18006KT 9SM BKN009 14/13 A2993 RMK AO2 SLP134 T01440133 10144 20100 401670078 55005


Station Type Date Time Source
KESF Decoded METAR 2019/12/09 05:53 UTC NOAA

ALEXANDRIA ESLER RGNL AIRPORT , LA, United States (KESF) 31-24N 092-18W 28M
Dec 09, 2019 - 12:53 AM EST / 2019.12.09 0553 UTC
Wind: from the S (180 degrees) at 7 MPH (6 KT):0
Visibility: 9 mile(s):0
Sky conditions: mostly cloudy
Temperature: 57.9 F (14.4 C)
Dew Point: 55.9 F (13.3 C)
Relative Humidity: 93%
Pressure (altimeter): 29.93 in. Hg (1013 hPa)
Pressure tendency: 0.01 inches (0.5 hPa) lower than three hours ago
ob: KESF 090553Z AUTO 18006KT 9SM BKN009 14/13 A2993 RMK AO2 SLP134 T01440133 10144 20100 401670078 55005
cycle: 6

Station Type Date Time Source
KESF TAF UTC NOAA

Error!

Example: see airport list